Soleuvre, Luxembourg
Current Conditions -  °F | °C
As of 7:20 PM on Thursday 29 Jan 2015 (Local Time) from ELLX Reporting Station
Light Snow Light Snow  
Wind Chill: 26°   Ceiling: 500
Heat Index: 34°   Visibility: 4mi
Dew Point: 34°   Wind: 10mph
Humidity: 100%   Direction: 210°SSW
Pressure: 28.88"   Gusts: NA
Location:  49.53°N, 5.94°E
Report Text: ELLX 291820Z 21009KT 170V240 6000 -SNRA SCT003 OVC005 01/01 Q0978 TEMPO 3000 SN OVC004
Loading
Personal Weather Stations






























Interactive Weather Map New forecast layout! Learn more

10-Day Weather Forecast

Advertisements
Track Severe Weather on mobile